Time;durP1;ratioP1;P1;durP2;ratioP2;P2;SDS_P1;SDS_P2;PMS_P1;PMS_P2;Temp;Humidity;BMP_temperature;BMP_pressure;BME280_temperature;BME280_humidity;BME280_pressure;Samples;Min_cycle;Max_cycle;Signal;HPM_P1;HPM_P2
2021/11/18 00:01:52;;;;;;;20.52;9.40;;;9.00;99.90;;;;;;5053349;28;20190;-76
2021/11/18 00:04:19;;;;;;;19.55;9.70;;;9.00;99.90;;;;;;5053758;28;20167;-78
2021/11/18 00:06:48;;;;;;;25.02;9.98;;;8.90;99.90;;;;;;5053840;28;20179;-78
2021/11/18 00:09:17;;;;;;;44.55;10.40;;;8.80;99.90;;;;;;5053864;28;20167;-78
2021/11/18 00:11:44;;;;;;;30.83;10.48;;;8.80;99.90;;;;;;5052843;28;20167;-79
2021/11/18 00:14:10;;;;;;;26.00;9.40;;;8.80;99.90;;;;;;5053380;28;20159;-78
2021/11/18 00:16:35;;;;;;;28.25;11.75;;;8.90;99.90;;;;;;5053381;28;20174;-78
2021/11/18 00:19:04;;;;;;;26.73;11.43;;;9.00;99.90;;;;;;5053225;28;20207;-78
2021/11/18 00:21:32;;;;;;;22.50;10.95;;;8.90;99.90;;;;;;5053346;28;20171;-78
2021/11/18 00:24:00;;;;;;;33.65;9.82;;;8.70;99.90;;;;;;5053239;28;20190;-78
2021/11/18 00:26:29;;;;;;;26.60;11.43;;;8.70;99.90;;;;;;5053472;28;20246;-79
2021/11/18 00:28:55;;;;;;;21.17;11.13;;;8.70;99.90;;;;;;5053071;28;20195;-79
2021/11/18 00:31:25;;;;;;;21.98;10.95;;;8.50;99.90;;;;;;5035460;28;20167;-78
2021/11/18 00:33:50;;;;;;;12.10;9.73;;;8.40;99.90;;;;;;5035494;28;20210;-78
2021/11/18 00:36:16;;;;;;;27.58;9.43;;;8.60;99.90;;;;;;5035520;28;20612;-78
2021/11/18 00:38:43;;;;;;;21.00;8.88;;;8.80;99.90;;;;;;5053153;28;20216;-78
2021/11/18 00:41:10;;;;;;;18.58;9.70;;;8.80;99.90;;;;;;5053161;28;20242;-78
2021/11/18 00:43:36;;;;;;;23.85;10.40;;;8.80;99.90;;;;;;5035097;28;20175;-79
2021/11/18 00:46:01;;;;;;;36.47;9.73;;;8.80;99.90;;;;;;5053018;28;20173;-75
2021/11/18 00:48:28;;;;;;;19.88;9.15;;;8.70;99.90;;;;;;5052898;28;20183;-79
2021/11/18 00:51:06;;;;;;;17.17;9.00;;;8.60;99.90;;;;;;5035248;28;20692;-78
2021/11/18 00:53:33;;;;;;;16.52;9.88;;;8.50;99.90;;;;;;5052990;28;20225;-78
2021/11/18 00:55:59;;;;;;;23.50;9.68;;;8.50;99.90;;;;;;5052883;28;20639;-81
2021/11/18 00:58:24;;;;;;;23.73;9.23;;;8.60;99.90;;;;;;5052751;28;20207;-78
2021/11/18 01:00:51;;;;;;;17.20;10.00;;;8.60;99.90;;;;;;5053124;28;20167;-80
2021/11/18 01:03:19;;;;;;;24.05;8.95;;;8.50;99.90;;;;;;5053003;28;20171;-80
2021/11/18 01:05:48;;;;;;;13.32;8.50;;;8.40;99.90;;;;;;5052355;28;20167;-78
2021/11/18 01:08:14;;;;;;;16.25;8.75;;;8.40;99.90;;;;;;5053020;28;20228;-78
2021/11/18 01:11:06;;;;;;;10.70;8.75;;;8.30;99.90;;;;;;5053058;28;20167;-78
2021/11/18 01:13:33;;;;;;;24.45;9.18;;;8.40;99.90;;;;;;5052394;28;20179;-78
2021/11/18 01:16:00;;;;;;;19.13;9.10;;;8.40;99.90;;;;;;5034843;28;20180;-78
2021/11/18 01:18:26;;;;;;;16.70;9.27;;;8.20;99.90;;;;;;5052477;28;20209;-78
2021/11/18 01:20:52;;;;;;;19.65;8.52;;;8.20;99.90;;;;;;5052563;28;20242;-78
2021/11/18 01:23:23;;;;;;;27.63;9.40;;;8.30;99.90;;;;;;5052597;28;20234;-78
2021/11/18 01:25:49;;;;;;;21.17;9.32;;;8.20;99.90;;;;;;5052686;28;20635;-78
2021/11/18 01:28:14;;;;;;;18.27;8.18;;;8.20;99.90;;;;;;5052320;28;20178;-77
2021/11/18 01:30:42;;;;;;;14.20;8.90;;;8.10;99.90;;;;;;5052440;28;20593;-78
2021/11/18 01:33:11;;;;;;;24.02;9.68;;;8.20;99.90;;;;;;5052507;28;20212;-78
2021/11/18 01:35:37;;;;;;;22.98;9.95;;;8.20;99.90;;;;;;5052533;28;20171;-78
2021/11/18 01:38:03;;;;;;;17.95;9.50;;;8.20;99.90;;;;;;5052373;28;20278;-78
2021/11/18 01:40:32;;;;;;;27.02;10.88;;;8.20;99.90;;;;;;5034494;28;20258;-78
2021/11/18 01:42:59;;;;;;;29.13;8.88;;;8.10;99.90;;;;;;5052150;28;20754;-78
2021/11/18 01:45:28;;;;;;;20.30;9.23;;;8.00;99.90;;;;;;5052413;28;20172;-78
2021/11/18 01:47:54;;;;;;;27.48;8.75;;;8.10;99.90;;;;;;5052435;28;20294;-78
2021/11/18 01:50:23;;;;;;;20.85;10.07;;;8.30;99.90;;;;;;5052578;28;20258;-78
2021/11/18 01:52:51;;;;;;;19.90;9.65;;;8.30;99.90;;;;;;5052197;28;20250;-78
2021/11/18 01:55:20;;;;;;;11.15;8.45;;;8.10;99.90;;;;;;5052316;28;20196;-77
2021/11/18 01:57:47;;;;;;;16.77;9.13;;;8.10;99.90;;;;;;5052223;28;20237;-78
2021/11/18 02:00:21;;;;;;;25.73;9.38;;;7.90;99.90;;;;;;5052360;28;20701;-78
2021/11/18 02:02:47;;;;;;;29.00;8.73;;;7.60;99.90;;;;;;5052217;28;20209;-78
2021/11/18 02:05:18;;;;;;;10.85;7.35;;;7.60;99.90;;;;;;5052102;28;20197;-78
2021/11/18 02:07:46;;;;;;;27.15;9.23;;;7.40;99.90;;;;;;5052114;28;20183;-79
2021/11/18 02:10:18;;;;;;;23.50;9.50;;;7.50;99.90;;;;;;5052214;28;20164;-78
2021/11/18 02:12:44;;;;;;;15.70;8.70;;;7.40;99.90;;;;;;5052188;28;20166;-78
2021/11/18 02:15:25;;;;;;;17.08;8.57;;;7.50;99.90;;;;;;5052112;28;20685;-78
2021/11/18 02:17:52;;;;;;;25.25;9.25;;;7.60;99.90;;;;;;5054818;28;20191;-78
2021/11/18 02:20:37;;;;;;;17.75;8.88;;;7.70;99.90;;;;;;5056075;28;20240;-77
2021/11/18 02:23:11;;;;;;;27.98;9.43;;;7.80;99.90;;;;;;5057492;28;20230;-77
2021/11/18 02:25:37;;;;;;;13.65;8.40;;;7.90;99.90;;;;;;5040431;28;20182;-80
2021/11/18 02:28:03;;;;;;;21.05;8.50;;;7.90;99.90;;;;;;5059056;28;20213;-78
2021/11/18 02:30:33;;;;;;;17.55;9.77;;;7.80;99.90;;;;;;5064775;28;20167;-77
2021/11/18 02:32:59;;;;;;;25.42;9.35;;;7.70;99.90;;;;;;5057385;28;20580;-78
2021/11/18 02:35:28;;;;;;;22.75;10.93;;;7.80;99.90;;;;;;5056510;28;20184;-77
2021/11/18 02:37:56;;;;;;;30.98;11.32;;;7.90;99.90;;;;;;5056240;28;20190;-78
2021/11/18 02:40:23;;;;;;;32.75;9.85;;;8.00;99.90;;;;;;5056414;28;20258;-78
2021/11/18 02:42:50;;;;;;;16.70;10.35;;;8.00;99.90;;;;;;5056238;28;20199;-78
2021/11/18 02:45:26;;;;;;;22.45;11.18;;;8.10;99.90;;;;;;5056078;28;20277;-77
2021/11/18 02:47:54;;;;;;;22.58;10.57;;;8.10;99.90;;;;;;5056187;28;20266;-78
2021/11/18 02:50:23;;;;;;;34.15;11.02;;;8.20;99.90;;;;;;5055874;28;20167;-78
2021/11/18 02:52:49;;;;;;;24.63;9.85;;;8.00;99.90;;;;;;5056373;28;20171;-78
2021/11/18 02:55:22;;;;;;;17.98;10.48;;;8.10;99.90;;;;;;5055915;28;20288;-78
2021/11/18 02:57:48;;;;;;;19.08;10.27;;;7.90;99.90;;;;;;5055471;28;20270;-85
2021/11/18 03:00:19;;;;;;;23.48;9.82;;;7.70;99.90;;;;;;5055537;28;20175;-78
2021/11/18 03:02:45;;;;;;;17.67;8.65;;;7.60;99.90;;;;;;5038065;28;20665;-77
2021/11/18 03:05:11;;;;;;;17.50;10.00;;;7.60;99.90;;;;;;5055557;28;20163;-78
2021/11/18 03:07:37;;;;;;;14.07;8.88;;;7.50;99.90;;;;;;5055157;28;20669;-77
2021/11/18 03:10:09;;;;;;;13.98;8.57;;;7.50;99.90;;;;;;5055600;28;20167;-78
2021/11/18 03:12:36;;;;;;;13.63;7.32;;;7.40;99.90;;;;;;5055836;28;20163;-78
2021/11/18 03:15:02;;;;;;;18.25;9.15;;;7.30;99.90;;;;;;5055747;28;20164;-78
2021/11/18 03:17:28;;;;;;;25.23;10.50;;;7.30;99.90;;;;;;5055087;28;20549;-78
2021/11/18 03:19:54;;;;;;;17.10;9.18;;;7.30;99.90;;;;;;5055438;28;20199;-77
2021/11/18 03:22:20;;;;;;;20.77;10.05;;;7.20;99.90;;;;;;5055808;28;20191;-78
2021/11/18 03:24:45;;;;;;;33.55;9.52;;;7.30;99.90;;;;;;5055461;28;20519;-78
2021/11/18 03:27:11;;;;;;;19.50;9.98;;;7.20;99.90;;;;;;5054588;28;20187;-78
2021/11/18 03:29:36;;;;;;;22.10;9.05;;;7.20;99.90;;;;;;5054797;28;20631;-78
2021/11/18 03:32:03;;;;;;;34.63;10.30;;;7.20;99.90;;;;;;5055008;28;20170;-78
2021/11/18 03:34:30;;;;;;;19.40;11.25;;;7.50;99.90;;;;;;5055122;28;20163;-77
2021/11/18 03:36:57;;;;;;;20.40;10.35;;;7.70;99.90;;;;;;5054855;28;20191;-77
2021/11/18 03:39:24;;;;;;;25.63;10.82;;;7.80;99.90;;;;;;5054830;28;20203;-78
2021/11/18 03:41:56;;;;;;;29.85;12.65;;;7.90;99.90;;;;;;5036624;28;20257;-78
2021/11/18 03:44:24;;;;;;;29.00;12.07;;;8.00;99.90;;;;;;5054662;28;20163;-77
2021/11/18 03:46:54;;;;;;;31.42;11.40;;;8.10;99.90;;;;;;5036890;28;20175;-78
2021/11/18 03:49:22;;;;;;;31.73;11.43;;;8.10;99.90;;;;;;5055615;28;20246;-77
2021/11/18 03:51:49;;;;;;;25.85;11.15;;;7.90;99.90;;;;;;5055549;28;20212;-77
2021/11/18 03:54:17;;;;;;;27.40;11.15;;;7.70;99.90;;;;;;5054722;28;20541;-77
2021/11/18 03:56:43;;;;;;;21.35;10.50;;;7.60;99.90;;;;;;5054815;28;20581;-77
2021/11/18 03:59:14;;;;;;;24.08;9.85;;;7.60;99.90;;;;;;5054469;28;20217;-78
2021/11/18 04:01:42;;;;;;;20.83;9.57;;;7.50;99.90;;;;;;5054922;28;20638;-77
2021/11/18 04:04:11;;;;;;;29.60;11.25;;;7.40;99.90;;;;;;5055365;28;20167;-84
2021/11/18 04:06:39;;;;;;;20.70;11.10;;;7.50;99.90;;;;;;5054809;28;20168;-78
2021/11/18 04:09:05;;;;;;;24.40;10.65;;;7.50;99.90;;;;;;5036996;28;20178;-77
2021/11/18 04:11:31;;;;;;;19.75;10.15;;;7.50;99.90;;;;;;5054758;28;20199;-77
2021/11/18 04:13:57;;;;;;;20.05;9.95;;;7.60;99.90;;;;;;5054400;28;20630;-78
2021/11/18 04:16:23;;;;;;;28.10;11.60;;;7.60;99.90;;;;;;5054230;28;20167;-78
2021/11/18 04:18:49;;;;;;;34.58;11.48;;;7.70;99.90;;;;;;5054324;28;20195;-78
2021/11/18 04:21:14;;;;;;;23.02;11.13;;;7.60;99.90;;;;;;5054979;28;20630;-78
2021/11/18 04:23:40;;;;;;;32.65;11.98;;;7.70;99.90;;;;;;5054681;28;20265;-79
2021/11/18 04:26:06;;;;;;;24.98;11.32;;;7.80;99.90;;;;;;5057518;28;20163;-78
2021/11/18 04:28:33;;;;;;;36.63;11.95;;;8.00;99.90;;;;;;5059133;28;20191;-77
2021/11/18 04:31:02;;;;;;;33.08;11.52;;;8.00;99.90;;;;;;5053941;28;20163;-78
2021/11/18 04:33:29;;;;;;;22.73;10.75;;;7.90;99.90;;;;;;5053953;28;20163;-79
2021/11/18 04:35:56;;;;;;;30.67;12.75;;;7.80;99.90;;;;;;5053827;28;20218;-77
2021/11/18 04:38:22;;;;;;;17.45;11.05;;;7.90;99.90;;;;;;5035456;28;20706;-77
2021/11/18 04:40:48;;;;;;;30.35;12.40;;;7.90;99.90;;;;;;5053143;28;20167;-78
2021/11/18 04:43:14;;;;;;;26.60;11.07;;;7.80;99.90;;;;;;5054965;28;20171;-78
2021/11/18 04:45:40;;;;;;;35.30;11.13;;;7.60;99.90;;;;;;5054188;28;20155;-79
2021/11/18 04:48:07;;;;;;;29.00;12.50;;;7.80;99.90;;;;;;5053890;28;20202;-77
2021/11/18 04:50:33;;;;;;;27.35;11.82;;;7.70;99.90;;;;;;5035539;28;20531;-77
2021/11/18 04:52:59;;;;;;;24.65;12.40;;;7.80;99.90;;;;;;5052968;28;20254;-77
2021/11/18 04:55:27;;;;;;;27.92;11.93;;;7.90;99.90;;;;;;5052867;28;20266;-77
2021/11/18 04:57:53;;;;;;;31.33;10.77;;;8.00;99.90;;;;;;5052969;28;20273;-77
2021/11/18 05:00:25;;;;;;;41.00;11.00;;;8.00;99.90;;;;;;5052831;28;20184;-77
2021/11/18 05:02:51;;;;;;;27.85;11.02;;;8.20;99.90;;;;;;5035001;28;20163;-77
2021/11/18 05:05:17;;;;;;;25.27;12.63;;;8.20;99.90;;;;;;5053129;28;20671;-77
2021/11/18 05:07:43;;;;;;;38.97;10.90;;;8.20;99.90;;;;;;5053043;28;20581;-77
2021/11/18 05:10:10;;;;;;;37.40;11.18;;;8.20;99.90;;;;;;5054034;28;20193;-78
2021/11/18 05:12:36;;;;;;;29.63;11.18;;;8.00;99.90;;;;;;5054059;28;20174;-77
2021/11/18 05:15:04;;;;;;;26.33;10.75;;;8.10;99.90;;;;;;5036468;28;20167;-77
2021/11/18 05:17:30;;;;;;;24.08;11.25;;;8.10;99.90;;;;;;5054073;28;20248;-77
2021/11/18 05:19:55;;;;;;;24.85;9.93;;;8.20;99.90;;;;;;5053534;28;20560;-78
2021/11/18 05:22:21;;;;;;;19.02;10.65;;;8.20;99.90;;;;;;5054089;28;20167;-78
2021/11/18 05:24:47;;;;;;;29.65;11.40;;;8.30;99.90;;;;;;5036675;28;20211;-77
2021/11/18 05:27:13;;;;;;;22.67;10.32;;;8.30;99.90;;;;;;5053248;28;20187;-77
2021/11/18 05:29:39;;;;;;;26.20;11.48;;;8.30;99.90;;;;;;5053016;28;20155;-78
2021/11/18 05:32:05;;;;;;;30.65;12.75;;;8.20;99.90;;;;;;5053251;28;20163;-77
2021/11/18 05:34:31;;;;;;;26.88;10.77;;;8.30;99.90;;;;;;5035793;28;20213;-77
2021/11/18 05:36:57;;;;;;;35.53;12.18;;;8.30;99.90;;;;;;5053991;28;20679;-78
2021/11/18 05:39:22;;;;;;;32.72;10.88;;;8.10;99.90;;;;;;5054045;28;20238;-77
2021/11/18 05:41:48;;;;;;;31.90;10.95;;;8.00;99.90;;;;;;5053630;28;20167;-78
2021/11/18 05:44:15;;;;;;;25.67;12.02;;;7.70;99.90;;;;;;5054547;28;20639;-78
2021/11/18 05:46:41;;;;;;;23.77;11.35;;;7.70;99.90;;;;;;5053088;28;20178;-78
2021/11/18 05:49:07;;;;;;;21.60;11.27;;;7.80;99.90;;;;;;5052948;28;20175;-78
2021/11/18 05:51:33;;;;;;;23.27;10.82;;;8.00;99.90;;;;;;5055326;28;20204;-78
2021/11/18 05:53:59;;;;;;;32.00;11.60;;;7.70;99.90;;;;;;5057279;28;20623;-78
2021/11/18 05:56:25;;;;;;;29.73;11.45;;;7.50;99.90;;;;;;5056837;28;20249;-78
2021/11/18 05:58:52;;;;;;;23.42;10.52;;;7.50;99.90;;;;;;5056155;28;20761;-78
2021/11/18 06:01:23;;;;;;;29.73;10.90;;;7.50;99.90;;;;;;5056240;28;20168;-78
2021/11/18 06:03:49;;;;;;;17.20;11.02;;;7.70;99.90;;;;;;5056187;28;20164;-77
2021/11/18 06:06:15;;;;;;;23.58;11.30;;;7.60;99.90;;;;;;5038168;28;20171;-77
2021/11/18 06:08:42;;;;;;;30.25;11.27;;;7.50;99.90;;;;;;5057283;28;20529;-79
2021/11/18 06:11:10;;;;;;;28.75;12.15;;;7.40;99.90;;;;;;5057981;28;20171;-77
2021/11/18 06:13:36;;;;;;;20.23;10.15;;;7.40;99.90;;;;;;5058005;28;20242;-78
2021/11/18 06:16:04;;;;;;;28.23;10.85;;;7.50;99.90;;;;;;5057660;28;20171;-79
2021/11/18 06:18:29;;;;;;;17.63;10.25;;;7.50;99.90;;;;;;5058097;28;20683;-78
2021/11/18 06:20:55;;;;;;;17.73;9.88;;;7.30;99.90;;;;;;5041120;28;20172;-77
2021/11/18 06:23:21;;;;;;;29.52;10.88;;;7.40;99.90;;;;;;5040323;28;20186;-78
2021/11/18 06:25:48;;;;;;;25.55;12.43;;;7.40;99.90;;;;;;5060206;28;20182;-78
2021/11/18 06:28:14;;;;;;;19.48;10.05;;;7.50;99.90;;;;;;5057911;28;20179;-78
2021/11/18 06:30:45;;;;;;;21.58;8.73;;;7.40;99.90;;;;;;5056634;28;20241;-77
2021/11/18 06:33:11;;;;;;;37.78;10.73;;;7.30;99.90;;;;;;5055797;28;20638;-77
2021/11/18 06:35:38;;;;;;;23.63;10.10;;;7.30;99.90;;;;;;5058320;28;20236;-78
2021/11/18 06:38:04;;;;;;;17.67;9.18;;;7.40;99.90;;;;;;5056226;28;20187;-78
2021/11/18 06:40:49;;;;;;;23.08;10.18;;;7.30;99.90;;;;;;5055171;28;20167;-77
2021/11/18 06:43:16;;;;;;;24.85;10.40;;;7.40;99.90;;;;;;5054870;28;20244;-78
2021/11/18 06:45:45;;;;;;;25.10;9.82;;;7.40;99.90;;;;;;5055142;28;20523;-76
2021/11/18 06:48:12;;;;;;;30.70;9.75;;;7.40;99.90;;;;;;5054905;28;20182;-78
2021/11/18 06:50:38;;;;;;;27.02;10.40;;;7.40;99.90;;;;;;5054721;28;20175;-76
2021/11/18 06:53:04;;;;;;;22.52;10.82;;;7.40;99.90;;;;;;5054883;28;20159;-76
2021/11/18 06:55:29;;;;;;;15.70;8.80;;;7.40;99.90;;;;;;5054561;28;20179;-76
2021/11/18 06:57:55;;;;;;;24.25;9.63;;;7.40;99.90;;;;;;5054689;28;20203;-77
2021/11/18 07:00:21;;;;;;;22.75;10.27;;;7.40;99.90;;;;;;5054568;28;20167;-77
2021/11/18 07:02:47;;;;;;;36.17;9.75;;;7.40;99.90;;;;;;5053402;28;20167;-77
2021/11/18 07:05:13;;;;;;;28.38;9.52;;;7.40;99.90;;;;;;5054085;28;20174;-76
2021/11/18 07:07:40;;;;;;;23.20;9.48;;;7.50;99.90;;;;;;5054568;28;20179;-77
2021/11/18 07:10:08;;;;;;;17.25;9.38;;;7.30;99.90;;;;;;5038169;28;20634;-78
2021/11/18 07:12:34;;;;;;;14.98;8.40;;;7.30;99.90;;;;;;5055886;28;20173;-78
2021/11/18 07:15:00;;;;;;;14.68;8.38;;;7.40;99.90;;;;;;5055028;28;20250;-78
2021/11/18 07:17:26;;;;;;;20.95;9.30;;;7.40;99.90;;;;;;5054770;28;20666;-77
2021/11/18 07:19:52;;;;;;;32.15;10.43;;;7.40;99.90;;;;;;5054638;28;20203;-77
2021/11/18 07:22:18;;;;;;;31.58;9.45;;;7.50;99.90;;;;;;5053887;28;20210;-76
2021/11/18 07:24:44;;;;;;;19.55;10.13;;;7.60;99.90;;;;;;5054288;28;20668;-77
2021/11/18 07:27:10;;;;;;;29.45;9.95;;;7.50;99.90;;;;;;5053983;28;20214;-76
2021/11/18 07:29:36;;;;;;;23.42;9.50;;;7.30;99.90;;;;;;5053760;28;20198;-77
2021/11/18 07:32:03;;;;;;;25.73;10.15;;;7.50;99.90;;;;;;5035930;28;20170;-76
2021/11/18 07:34:29;;;;;;;23.08;10.30;;;7.40;99.90;;;;;;5053563;28;20171;-76
2021/11/18 07:36:55;;;;;;;22.45;9.38;;;7.30;99.90;;;;;;5053658;28;20163;-83
2021/11/18 07:39:24;;;;;;;16.00;8.98;;;7.50;99.90;;;;;;5036017;28;20627;-76
2021/11/18 07:41:52;;;;;;;23.55;9.35;;;7.30;99.90;;;;;;5054014;28;20167;-76
2021/11/18 07:44:18;;;;;;;23.60;9.52;;;7.40;99.90;;;;;;5054055;28;20171;-77
2021/11/18 07:46:45;;;;;;;21.60;10.63;;;7.50;99.90;;;;;;5053581;28;20238;-78
2021/11/18 07:49:11;;;;;;;32.35;9.90;;;7.60;99.90;;;;;;5036275;28;20261;-77
2021/11/18 07:51:38;;;;;;;16.77;9.40;;;7.70;99.90;;;;;;5053616;28;20168;-77
2021/11/18 07:54:06;;;;;;;26.25;9.95;;;7.80;99.90;;;;;;5053596;28;20175;-77
2021/11/18 07:56:32;;;;;;;25.58;9.23;;;7.80;99.90;;;;;;5035696;28;20256;-78
2021/11/18 07:58:57;;;;;;;27.48;9.25;;;7.90;99.90;;;;;;5035364;28;20248;-77
2021/11/18 08:01:24;;;;;;;18.88;9.57;;;7.90;99.90;;;;;;5053504;28;20628;-77
2021/11/18 08:03:49;;;;;;;36.38;9.82;;;7.70;99.90;;;;;;5053696;28;20172;-78
2021/11/18 08:06:19;;;;;;;19.48;9.15;;;7.70;99.90;;;;;;5053454;28;20275;-78
2021/11/18 08:08:45;;;;;;;24.42;8.65;;;7.80;99.90;;;;;;5053466;28;20179;-77
2021/11/18 08:11:17;;;;;;;11.98;8.80;;;7.80;99.90;;;;;;5035419;28;20248;-77
2021/11/18 08:13:43;;;;;;;25.70;10.48;;;7.80;99.90;;;;;;5053411;28;20190;-80
2021/11/18 08:16:09;;;;;;;25.58;9.43;;;7.90;99.90;;;;;;5053505;28;20523;-83
2021/11/18 08:18:35;;;;;;;23.42;8.70;;;7.80;99.90;;;;;;5053097;28;20606;-78
2021/11/18 08:21:01;;;;;;;24.63;8.85;;;7.70;99.90;;;;;;5050724;28;20180;-77
2021/11/18 08:23:31;;;;;;;28.05;11.23;;;7.70;99.90;;;;;;5047628;28;20191;-76
2021/11/18 08:25:57;;;;;;;18.55;9.43;;;7.80;99.90;;;;;;5053040;28;20175;-77
2021/11/18 08:28:22;;;;;;;21.33;9.70;;;7.90;99.90;;;;;;5053098;28;20187;-78
2021/11/18 08:30:48;;;;;;;17.30;8.85;;;7.80;99.90;;;;;;5051712;28;20659;-78
2021/11/18 08:33:14;;;;;;;17.58;8.95;;;7.70;99.90;;;;;;5053374;28;20528;-79
2021/11/18 08:35:40;;;;;;;21.10;8.43;;;7.90;99.90;;;;;;5054215;28;20163;-77
2021/11/18 08:38:12;;;;;;;15.52;7.65;;;7.90;99.90;;;;;;5054827;28;20190;-78
2021/11/18 08:40:40;;;;;;;19.52;9.35;;;7.90;99.90;;;;;;5056363;28;20175;-79
2021/11/18 08:43:06;;;;;;;28.10;9.20;;;7.90;99.90;;;;;;5053267;28;20163;-78
2021/11/18 08:45:34;;;;;;;22.33;7.95;;;8.00;99.90;;;;;;5051687;28;20179;-77
2021/11/18 08:48:00;;;;;;;26.58;8.63;;;8.00;99.90;;;;;;5041738;28;20191;-77
2021/11/18 08:50:27;;;;;;;24.42;9.07;;;8.00;99.90;;;;;;5050510;28;20210;-78
2021/11/18 08:52:54;;;;;;;16.05;8.07;;;8.10;99.90;;;;;;5054006;28;20171;-79
2021/11/18 08:55:24;;;;;;;27.30;8.35;;;8.40;99.90;;;;;;5052425;28;20232;-81
2021/11/18 08:57:50;;;;;;;18.08;7.30;;;8.20;99.90;;;;;;5052921;28;20195;-77
2021/11/18 09:00:27;;;;;;;14.20;6.70;;;8.20;99.90;;;;;;5054808;28;20670;-78
2021/11/18 09:02:54;;;;;;;19.60;8.32;;;8.20;99.90;;;;;;5050965;28;20166;-78
2021/11/18 09:05:22;;;;;;;15.20;7.43;;;8.40;99.90;;;;;;5052129;28;20705;-77
2021/11/18 09:07:48;;;;;;;20.20;8.38;;;8.60;99.90;;;;;;5051020;28;20195;-78
2021/11/18 09:10:15;;;;;;;14.82;7.50;;;8.70;99.90;;;;;;5051560;28;20174;-77
2021/11/18 09:12:43;;;;;;;12.13;6.93;;;8.90;99.90;;;;;;5033694;28;20525;-77
2021/11/18 09:15:12;;;;;;;25.17;6.95;;;8.80;99.90;;;;;;5051898;28;20243;-77
2021/11/18 09:17:38;;;;;;;18.02;6.50;;;8.80;99.90;;;;;;5051516;28;21073;-77
2021/11/18 09:20:08;;;;;;;31.88;9.77;;;8.60;99.90;;;;;;5051976;28;20256;-77
2021/11/18 09:22:34;;;;;;;13.13;6.88;;;8.70;99.90;;;;;;5052079;28;20175;-77
2021/11/18 09:25:02;;;;;;;17.70;7.10;;;8.80;99.90;;;;;;5051315;28;20575;-77
2021/11/18 09:27:36;;;;;;;17.73;7.97;;;8.90;99.90;;;;;;5050891;28;20190;-77
2021/11/18 09:30:06;;;;;;;20.27;8.20;;;8.90;99.90;;;;;;5051948;28;20197;-77
2021/11/18 09:32:32;;;;;;;11.13;6.72;;;8.80;99.90;;;;;;5051853;28;20690;-77
2021/11/18 09:35:00;;;;;;;17.80;7.53;;;8.80;99.90;;;;;;5051700;28;20186;-76
2021/11/18 09:37:26;;;;;;;17.08;7.78;;;8.90;99.90;;;;;;5051199;28;20195;-76
2021/11/18 09:39:52;;;;;;;33.15;7.95;;;9.00;99.90;;;;;;5051838;28;20206;-76
2021/11/18 09:42:23;;;;;;;29.10;8.48;;;9.00;99.90;;;;;;5052080;28;20195;-76
2021/11/18 09:45:18;;;;;;;39.42;6.80;;;9.10;99.90;;;;;;5051813;28;20175;-76
2021/11/18 09:48:30;;;;;;;27.40;8.02;;;9.20;99.90;;;;;;5050758;28;20187;-77
2021/11/18 09:51:12;;;;;;;19.48;7.72;;;9.40;99.90;;;;;;5051572;28;20644;-77
2021/11/18 09:53:56;;;;;;;16.08;7.72;;;9.50;99.90;;;;;;5051698;28;20167;-76
2021/11/18 09:56:44;;;;;;;18.73;7.20;;;9.50;99.90;;;;;;5051242;28;20249;-77
2021/11/18 09:59:31;;;;;;;26.23;7.68;;;9.50;99.90;;;;;;5050910;28;20260;-76
2021/11/18 10:02:14;;;;;;;20.75;7.85;;;9.60;99.90;;;;;;5051541;28;20167;-76
2021/11/18 10:04:43;;;;;;;13.07;7.63;;;9.50;99.90;;;;;;5051983;28;20679;-76
2021/11/18 10:07:24;;;;;;;18.70;7.60;;;9.60;99.90;;;;;;5050803;28;20226;-78
2021/11/18 10:09:58;;;;;;;17.33;8.40;;;9.70;99.90;;;;;;5051514;28;20167;-77
2021/11/18 10:12:45;;;;;;;16.08;8.05;;;9.70;99.90;;;;;;5051274;28;20577;-77
2021/11/18 10:15:16;;;;;;;24.40;8.32;;;9.80;99.90;;;;;;5050890;28;20195;-76
2021/11/18 10:17:54;;;;;;;17.95;6.70;;;9.80;99.90;;;;;;5050392;28;20194;-76
2021/11/18 10:20:27;;;;;;;17.92;6.80;;;9.90;99.90;;;;;;5050938;28;20175;-77
2021/11/18 10:23:11;;;;;;;16.60;7.15;;;10.00;99.90;;;;;;5051368;28;20179;-76
2021/11/18 10:25:48;;;;;;;19.67;7.13;;;10.10;99.90;;;;;;5051615;28;20624;-77
2021/11/18 10:28:23;;;;;;;22.80;7.13;;;9.90;99.90;;;;;;5050160;28;20241;-77
2021/11/18 10:31:14;;;;;;;10.25;7.05;;;10.00;99.90;;;;;;5051452;28;20206;-76
2021/11/18 10:33:52;;;;;;;16.25;7.15;;;10.10;99.90;;;;;;5051369;28;20168;-76
2021/11/18 10:36:40;;;;;;;17.63;7.25;;;10.10;99.90;;;;;;5050928;28;20646;-77
2021/11/18 10:39:23;;;;;;;19.20;7.57;;;10.40;99.90;;;;;;5053530;28;20238;-77
2021/11/18 10:41:58;;;;;;;21.65;8.48;;;10.30;99.90;;;;;;5054629;28;20175;-76
2021/11/18 10:44:30;;;;;;;24.35;7.55;;;10.40;99.90;;;;;;5054207;28;20187;-76
2021/11/18 10:47:12;;;;;;;19.45;7.97;;;10.40;99.90;;;;;;5052818;28;20171;-76
2021/11/18 10:50:04;;;;;;;13.65;6.22;;;10.60;99.90;;;;;;5054496;28;20155;-77
2021/11/18 10:52:32;;;;;;;17.75;7.50;;;10.60;99.90;;;;;;5054885;28;20584;-77
2021/11/18 10:55:32;;;;;;;19.00;7.50;;;10.60;99.90;;;;;;5054714;28;20167;-78
2021/11/18 10:58:06;;;;;;;16.65;6.72;;;10.50;99.90;;;;;;5021519;28;20239;-77
2021/11/18 11:00:39;;;;;;;19.05;7.75;;;10.50;99.90;;;;;;5054058;28;20164;-78
2021/11/18 11:03:24;;;;;;;21.98;7.47;;;10.40;99.90;;;;;;5053893;28;20170;-78
2021/11/18 11:06:11;;;;;;;25.27;7.88;;;10.70;99.90;;;;;;5053196;28;20563;-77
2021/11/18 11:08:39;;;;;;;26.60;8.30;;;10.80;99.90;;;;;;5053455;28;20212;-76
2021/11/18 11:11:24;;;;;;;15.68;6.05;;;10.80;99.90;;;;;;5054005;28;20163;-80
2021/11/18 11:14:33;;;;;;;11.90;6.78;;;10.70;99.90;;;;;;5054161;28;20207;-77
2021/11/18 11:17:20;;;;;;;16.52;6.72;;;10.80;99.90;;;;;;5053956;28;20191;-78
2021/11/18 11:20:03;;;;;;;19.85;7.13;;;10.80;99.90;;;;;;5053960;28;20301;-78
2021/11/18 11:22:48;;;;;;;26.23;8.02;;;10.80;99.90;;;;;;5053616;28;20308;-78
2021/11/18 11:25:39;;;;;;;20.80;7.32;;;11.00;99.90;;;;;;5054071;28;20639;-77
2021/11/18 11:28:25;;;;;;;18.38;7.22;;;11.00;99.90;;;;;;5052548;28;20195;-77
2021/11/18 11:31:30;;;;;;;21.50;6.78;;;10.80;99.90;;;;;;5053794;28;20171;-77
2021/11/18 11:34:11;;;;;;;20.48;8.27;;;10.90;99.90;;;;;;5053014;28;20219;-77
2021/11/18 11:36:43;;;;;;;14.20;7.32;;;10.90;99.90;;;;;;5053246;28;20685;-77
2021/11/18 11:39:27;;;;;;;15.77;7.88;;;11.10;99.90;;;;;;5053179;28;20210;-77
2021/11/18 11:42:08;;;;;;;25.70;8.35;;;11.20;99.90;;;;;;5053736;28;20159;-76
2021/11/18 11:44:40;;;;;;;27.67;8.65;;;11.20;99.90;;;;;;5053768;28;20174;-77
2021/11/18 11:47:15;;;;;;;19.05;6.75;;;11.30;99.90;;;;;;5053220;28;20195;-77
2021/11/18 11:50:16;;;;;;;24.60;6.00;;;11.30;99.90;;;;;;5052857;28;20189;-77
2021/11/18 11:53:06;;;;;;;11.18;5.57;;;11.50;99.90;;;;;;4991635;28;20177;-85
2021/11/18 11:55:53;;;;;;;17.45;7.00;;;11.50;99.90;;;;;;5050838;28;20187;-78
2021/11/18 11:58:39;;;;;;;14.88;5.07;;;11.50;99.90;;;;;;5052315;28;20202;-77
2021/11/18 12:01:16;;;;;;;23.33;5.15;;;11.60;99.90;;;;;;5053478;28;20171;-77
2021/11/18 12:04:03;;;;;;;13.30;4.75;;;11.60;99.90;;;;;;5035115;28;20174;-76
2021/11/18 12:06:39;;;;;;;25.08;5.65;;;11.50;99.90;;;;;;5052901;28;20175;-76
2021/11/18 12:09:17;;;;;;;15.10;4.22;;;11.60;99.90;;;;;;5034335;28;20170;-76
2021/11/18 12:12:03;;;;;;;12.00;4.40;;;11.60;99.90;;;;;;5034801;28;20162;-77
2021/11/18 12:14:36;;;;;;;14.30;4.40;;;11.50;99.90;;;;;;5052935;28;20186;-76
2021/11/18 12:17:25;;;;;;;19.45;4.25;;;11.60;99.90;;;;;;5052498;28;20678;-76
2021/11/18 12:20:14;;;;;;;20.83;3.80;;;11.60;99.90;;;;;;5053468;28;20276;-86
2021/11/18 12:22:40;;;;;;;17.02;5.35;;;11.60;99.90;;;;;;5052699;28;20241;-78
2021/11/18 12:25:08;;;;;;;20.42;5.35;;;11.60;99.90;;;;;;5035626;28;20206;-76
2021/11/18 12:27:38;;;;;;;17.63;5.63;;;11.70;99.90;;;;;;5052552;28;20203;-84
2021/11/18 12:30:31;;;;;;;22.95;6.80;;;11.80;99.90;;;;;;5052516;28;20167;-80
2021/11/18 12:33:06;;;;;;;25.33;5.22;;;11.90;99.90;;;;;;5029982;28;20183;-78
2021/11/18 12:35:32;;;;;;;22.75;4.63;;;11.90;99.90;;;;;;5033510;28;20542;-80
2021/11/18 12:38:35;;;;;;;17.15;3.92;;;12.00;99.90;;;;;;5052575;28;20183;-78
2021/11/18 12:41:43;;;;;;;21.85;4.82;;;11.90;99.90;;;;;;5052842;28;20174;-77
2021/11/18 12:44:36;;;;;;;9.23;3.35;;;12.00;99.90;;;;;;5052400;28;20194;-77
2021/11/18 12:47:05;;;;;;;13.43;3.45;;;12.00;99.90;;;;;;5052587;28;20218;-78
2021/11/18 12:49:55;;;;;;;7.35;3.80;;;12.10;99.90;;;;;;5051631;28;20182;-85
2021/11/18 12:52:34;;;;;;;9.70;3.53;;;12.00;99.90;;;;;;5033044;28;20634;-82
2021/11/18 12:55:33;;;;;;;9.45;4.07;;;12.10;99.90;;;;;;5051341;28;20178;-79
2021/11/18 12:58:20;;;;;;;23.80;4.95;;;12.20;99.90;;;;;;4983438;28;20240;-82
2021/11/18 13:00:49;;;;;;;20.63;3.53;;;12.40;99.90;;;;;;4972838;28;20209;-77